sensor_id;sensor_type;location;lat;lon;timestamp;temperature;humidity
19044;DHT22;9654;52.302;8.120;2023-07-31T00:02:24;15.40;99.90
19044;DHT22;9654;52.302;8.120;2023-07-31T00:04:51;15.40;99.90
19044;DHT22;9654;52.302;8.120;2023-07-31T00:07:17;15.40;99.90
19044;DHT22;9654;52.302;8.120;2023-07-31T00:09:44;15.40;99.90
19044;DHT22;9654;52.302;8.120;2023-07-31T00:12:11;15.40;99.90
19044;DHT22;9654;52.302;8.120;2023-07-31T00:14:39;15.40;99.90
19044;DHT22;9654;52.302;8.120;2023-07-31T00:17:06;15.40;99.90
19044;DHT22;9654;52.302;8.120;2023-07-31T00:19:32;15.40;99.90
19044;DHT22;9654;52.302;8.120;2023-07-31T00:21:59;15.40;99.90
19044;DHT22;9654;52.302;8.120;2023-07-31T00:24:26;15.40;99.90
19044;DHT22;9654;52.302;8.120;2023-07-31T00:26:53;15.40;99.90
19044;DHT22;9654;52.302;8.120;2023-07-31T00:29:20;15.40;99.90
19044;DHT22;9654;52.302;8.120;2023-07-31T00:31:48;15.30;99.90
19044;DHT22;9654;52.302;8.120;2023-07-31T00:34:14;15.30;99.90
19044;DHT22;9654;52.302;8.120;2023-07-31T00:36:41;15.30;99.90
19044;DHT22;9654;52.302;8.120;2023-07-31T00:39:08;15.30;99.90
19044;DHT22;9654;52.302;8.120;2023-07-31T00:41:35;15.30;99.90
19044;DHT22;9654;52.302;8.120;2023-07-31T00:44:01;15.30;99.90
19044;DHT22;9654;52.302;8.120;2023-07-31T00:46:28;15.30;99.90
19044;DHT22;9654;52.302;8.120;2023-07-31T00:48:57;15.30;99.90
19044;DHT22;9654;52.302;8.120;2023-07-31T00:51:25;15.30;99.90
19044;DHT22;9654;52.302;8.120;2023-07-31T00:53:51;15.30;99.90
19044;DHT22;9654;52.302;8.120;2023-07-31T00:56:21;15.30;99.90
19044;DHT22;9654;52.302;8.120;2023-07-31T00:58:48;15.30;99.90
19044;DHT22;9654;52.302;8.120;2023-07-31T01:01:15;15.20;99.90
19044;DHT22;9654;52.302;8.120;2023-07-31T01:03:42;15.20;99.90
19044;DHT22;9654;52.302;8.120;2023-07-31T01:06:15;15.20;99.90
19044;DHT22;9654;52.302;8.120;2023-07-31T01:08:51;15.20;99.90
19044;DHT22;9654;52.302;8.120;2023-07-31T01:11:25;15.20;99.90
19044;DHT22;9654;52.302;8.120;2023-07-31T01:13:54;15.20;99.90
19044;DHT22;9654;52.302;8.120;2023-07-31T01:16:21;15.20;99.90
19044;DHT22;9654;52.302;8.120;2023-07-31T01:18:48;15.20;99.90
19044;DHT22;9654;52.302;8.120;2023-07-31T01:21:28;15.20;99.90
19044;DHT22;9654;52.302;8.120;2023-07-31T01:24:21;15.10;99.90
19044;DHT22;9654;52.302;8.120;2023-07-31T01:26:55;15.10;99.90
19044;DHT22;9654;52.302;8.120;2023-07-31T01:29:29;15.10;99.90
19044;DHT22;9654;52.302;8.120;2023-07-31T01:32:01;15.10;99.90
19044;DHT22;9654;52.302;8.120;2023-07-31T01:34:29;15.10;99.90
19044;DHT22;9654;52.302;8.120;2023-07-31T01:36:56;15.10;99.90
19044;DHT22;9654;52.302;8.120;2023-07-31T01:39:23;15.10;99.90
19044;DHT22;9654;52.302;8.120;2023-07-31T01:41:52;15.00;99.90
19044;DHT22;9654;52.302;8.120;2023-07-31T01:44:18;15.00;99.90
19044;DHT22;9654;52.302;8.120;2023-07-31T01:46:45;15.00;99.90
19044;DHT22;9654;52.302;8.120;2023-07-31T01:49:12;15.00;99.90
19044;DHT22;9654;52.302;8.120;2023-07-31T01:51:39;15.00;99.90
19044;DHT22;9654;52.302;8.120;2023-07-31T01:54:06;15.00;99.90
19044;DHT22;9654;52.302;8.120;2023-07-31T01:56:32;15.00;99.90
19044;DHT22;9654;52.302;8.120;2023-07-31T01:59:00;15.00;99.90
19044;DHT22;9654;52.302;8.120;2023-07-31T02:01:27;15.00;99.90
19044;DHT22;9654;52.302;8.120;2023-07-31T02:03:54;15.00;99.90
19044;DHT22;9654;52.302;8.120;2023-07-31T02:06:21;14.90;99.90
19044;DHT22;9654;52.302;8.120;2023-07-31T02:08:48;14.90;99.90
19044;DHT22;9654;52.302;8.120;2023-07-31T02:11:14;14.90;99.90
19044;DHT22;9654;52.302;8.120;2023-07-31T02:13:41;14.90;99.90
19044;DHT22;9654;52.302;8.120;2023-07-31T02:16:09;14.90;99.90
19044;DHT22;9654;52.302;8.120;2023-07-31T02:18:36;14.90;99.90
19044;DHT22;9654;52.302;8.120;2023-07-31T02:21:03;14.90;99.90
19044;DHT22;9654;52.302;8.120;2023-07-31T02:23:30;14.90;99.90
19044;DHT22;9654;52.302;8.120;2023-07-31T02:25:56;14.90;99.90
19044;DHT22;9654;52.302;8.120;2023-07-31T02:28:23;14.90;99.90
19044;DHT22;9654;52.302;8.120;2023-07-31T02:30:50;14.90;99.90
19044;DHT22;9654;52.302;8.120;2023-07-31T02:33:19;15.00;99.90
19044;DHT22;9654;52.302;8.120;2023-07-31T02:35:45;15.00;99.90
19044;DHT22;9654;52.302;8.120;2023-07-31T02:38:12;15.00;99.90
19044;DHT22;9654;52.302;8.120;2023-07-31T02:40:39;15.00;99.90
19044;DHT22;9654;52.302;8.120;2023-07-31T02:43:06;15.00;99.90
19044;DHT22;9654;52.302;8.120;2023-07-31T02:45:33;15.00;99.90
19044;DHT22;9654;52.302;8.120;2023-07-31T02:48:00;15.00;99.90
19044;DHT22;9654;52.302;8.120;2023-07-31T02:50:28;15.00;99.90
19044;DHT22;9654;52.302;8.120;2023-07-31T02:52:55;15.00;99.90
19044;DHT22;9654;52.302;8.120;2023-07-31T02:55:22;15.00;99.90
19044;DHT22;9654;52.302;8.120;2023-07-31T02:57:48;15.00;99.90
19044;DHT22;9654;52.302;8.120;2023-07-31T03:00:17;15.00;99.90
19044;DHT22;9654;52.302;8.120;2023-07-31T03:02:44;14.90;99.90
19044;DHT22;9654;52.302;8.120;2023-07-31T03:05:11;14.90;99.90
19044;DHT22;9654;52.302;8.120;2023-07-31T03:07:39;14.90;99.90
19044;DHT22;9654;52.302;8.120;2023-07-31T03:10:07;14.90;99.90
19044;DHT22;9654;52.302;8.120;2023-07-31T03:12:34;14.90;99.90
19044;DHT22;9654;52.302;8.120;2023-07-31T03:15:00;14.80;99.90
19044;DHT22;9654;52.302;8.120;2023-07-31T03:17:27;14.80;99.90
19044;DHT22;9654;52.302;8.120;2023-07-31T03:19:54;14.80;99.90
19044;DHT22;9654;52.302;8.120;2023-07-31T03:22:21;14.80;99.90
19044;DHT22;9654;52.302;8.120;2023-07-31T03:24:49;14.80;99.90
19044;DHT22;9654;52.302;8.120;2023-07-31T03:27:15;14.80;99.90
19044;DHT22;9654;52.302;8.120;2023-07-31T03:29:42;14.80;99.90
19044;DHT22;9654;52.302;8.120;2023-07-31T03:32:09;14.80;99.90
19044;DHT22;9654;52.302;8.120;2023-07-31T03:34:36;14.80;99.90
19044;DHT22;9654;52.302;8.120;2023-07-31T03:37:03;14.80;99.90
19044;DHT22;9654;52.302;8.120;2023-07-31T03:39:30;14.90;99.90
19044;DHT22;9654;52.302;8.120;2023-07-31T03:41:58;14.90;99.90
19044;DHT22;9654;52.302;8.120;2023-07-31T03:44:25;14.90;99.90
19044;DHT22;9654;52.302;8.120;2023-07-31T03:46:52;14.90;99.90
19044;DHT22;9654;52.302;8.120;2023-07-31T03:49:19;14.90;99.90
19044;DHT22;9654;52.302;8.120;2023-07-31T03:51:45;14.90;99.90
19044;DHT22;9654;52.302;8.120;2023-07-31T03:54:12;14.90;99.90
19044;DHT22;9654;52.302;8.120;2023-07-31T03:56:39;15.00;99.90
19044;DHT22;9654;52.302;8.120;2023-07-31T03:59:07;15.00;99.90
19044;DHT22;9654;52.302;8.120;2023-07-31T04:01:34;15.10;99.90
19044;DHT22;9654;52.302;8.120;2023-07-31T04:04:01;15.10;99.90
19044;DHT22;9654;52.302;8.120;2023-07-31T04:06:28;15.20;99.90
19044;DHT22;9654;52.302;8.120;2023-07-31T04:08:54;15.20;99.90
19044;DHT22;9654;52.302;8.120;2023-07-31T04:11:21;15.20;99.90
19044;DHT22;9654;52.302;8.120;2023-07-31T04:13:48;15.30;99.90
19044;DHT22;9654;52.302;8.120;2023-07-31T04:16:16;15.30;99.90
19044;DHT22;9654;52.302;8.120;2023-07-31T04:18:43;15.40;99.90
19044;DHT22;9654;52.302;8.120;2023-07-31T04:21:10;15.40;99.90
19044;DHT22;9654;52.302;8.120;2023-07-31T04:23:37;15.40;99.90
19044;DHT22;9654;52.302;8.120;2023-07-31T04:26:04;15.50;99.90
19044;DHT22;9654;52.302;8.120;2023-07-31T04:28:31;15.50;99.90
19044;DHT22;9654;52.302;8.120;2023-07-31T04:30:58;15.50;99.90
19044;DHT22;9654;52.302;8.120;2023-07-31T04:33:26;15.50;99.90
19044;DHT22;9654;52.302;8.120;2023-07-31T04:35:53;15.50;99.90
19044;DHT22;9654;52.302;8.120;2023-07-31T04:38:21;15.50;99.90
19044;DHT22;9654;52.302;8.120;2023-07-31T04:40:48;15.50;99.90
19044;DHT22;9654;52.302;8.120;2023-07-31T04:43:15;15.50;99.90
19044;DHT22;9654;52.302;8.120;2023-07-31T04:45:44;15.60;99.90
19044;DHT22;9654;52.302;8.120;2023-07-31T04:48:11;15.50;99.90
19044;DHT22;9654;52.302;8.120;2023-07-31T04:50:39;15.50;99.90
19044;DHT22;9654;52.302;8.120;2023-07-31T04:53:06;15.50;99.90
19044;DHT22;9654;52.302;8.120;2023-07-31T04:55:33;15.60;99.90
19044;DHT22;9654;52.302;8.120;2023-07-31T04:57:59;15.60;99.90
19044;DHT22;9654;52.302;8.120;2023-07-31T05:00:26;15.60;99.90
19044;DHT22;9654;52.302;8.120;2023-07-31T05:02:53;15.60;99.90
19044;DHT22;9654;52.302;8.120;2023-07-31T05:05:20;15.60;99.90
19044;DHT22;9654;52.302;8.120;2023-07-31T05:07:48;15.50;99.90
19044;DHT22;9654;52.302;8.120;2023-07-31T05:10:15;15.50;99.90
19044;DHT22;9654;52.302;8.120;2023-07-31T05:12:41;15.50;99.90
19044;DHT22;9654;52.302;8.120;2023-07-31T05:15:09;15.50;99.90
19044;DHT22;9654;52.302;8.120;2023-07-31T05:17:36;15.50;99.90
19044;DHT22;9654;52.302;8.120;2023-07-31T05:20:03;15.50;99.90
19044;DHT22;9654;52.302;8.120;2023-07-31T05:22:30;15.50;99.90
19044;DHT22;9654;52.302;8.120;2023-07-31T05:24:58;15.50;99.90
19044;DHT22;9654;52.302;8.120;2023-07-31T05:27:25;15.50;99.90
19044;DHT22;9654;52.302;8.120;2023-07-31T05:29:52;15.50;99.90
19044;DHT22;9654;52.302;8.120;2023-07-31T05:32:18;15.50;99.90
19044;DHT22;9654;52.302;8.120;2023-07-31T05:34:45;15.50;99.90
19044;DHT22;9654;52.302;8.120;2023-07-31T05:37:12;15.50;99.90
19044;DHT22;9654;52.302;8.120;2023-07-31T05:39:39;15.50;99.90
19044;DHT22;9654;52.302;8.120;2023-07-31T05:42:07;15.50;99.90
19044;DHT22;9654;52.302;8.120;2023-07-31T05:44:34;15.50;99.90
19044;DHT22;9654;52.302;8.120;2023-07-31T05:47:01;15.50;99.90
19044;DHT22;9654;52.302;8.120;2023-07-31T05:49:27;15.50;99.90
19044;DHT22;9654;52.302;8.120;2023-07-31T05:51:54;15.50;99.90
19044;DHT22;9654;52.302;8.120;2023-07-31T05:54:21;15.50;99.90
19044;DHT22;9654;52.302;8.120;2023-07-31T05:56:48;15.50;99.90
19044;DHT22;9654;52.302;8.120;2023-07-31T05:59:16;15.50;99.90
19044;DHT22;9654;52.302;8.120;2023-07-31T06:01:43;15.50;99.90
19044;DHT22;9654;52.302;8.120;2023-07-31T06:04:10;15.50;99.90
19044;DHT22;9654;52.302;8.120;2023-07-31T06:06:36;15.50;99.90
19044;DHT22;9654;52.302;8.120;2023-07-31T06:09:03;15.50;99.90
19044;DHT22;9654;52.302;8.120;2023-07-31T06:11:30;15.50;99.90
19044;DHT22;9654;52.302;8.120;2023-07-31T06:13:57;15.50;99.90
19044;DHT22;9654;52.302;8.120;2023-07-31T06:16:26;15.50;99.90
19044;DHT22;9654;52.302;8.120;2023-07-31T06:18:53;15.50;99.90
19044;DHT22;9654;52.302;8.120;2023-07-31T06:21:19;15.60;99.90
19044;DHT22;9654;52.302;8.120;2023-07-31T06:23:46;15.60;99.90
19044;DHT22;9654;52.302;8.120;2023-07-31T06:26:13;15.60;99.90
19044;DHT22;9654;52.302;8.120;2023-07-31T06:28:40;15.60;99.90
19044;DHT22;9654;52.302;8.120;2023-07-31T06:31:07;15.50;99.90
19044;DHT22;9654;52.302;8.120;2023-07-31T06:33:35;15.60;99.90
19044;DHT22;9654;52.302;8.120;2023-07-31T06:36:01;15.60;99.90
19044;DHT22;9654;52.302;8.120;2023-07-31T06:38:28;15.60;99.90
19044;DHT22;9654;52.302;8.120;2023-07-31T06:40:55;15.60;99.90
19044;DHT22;9654;52.302;8.120;2023-07-31T06:43:22;15.60;99.90
19044;DHT22;9654;52.302;8.120;2023-07-31T06:45:49;15.60;99.90
19044;DHT22;9654;52.302;8.120;2023-07-31T06:48:16;15.70;99.90
19044;DHT22;9654;52.302;8.120;2023-07-31T06:50:45;15.70;99.90
19044;DHT22;9654;52.302;8.120;2023-07-31T06:53:11;15.80;99.90
19044;DHT22;9654;52.302;8.120;2023-07-31T06:55:38;15.80;99.90
19044;DHT22;9654;52.302;8.120;2023-07-31T06:58:05;15.80;99.90
19044;DHT22;9654;52.302;8.120;2023-07-31T07:00:32;15.90;99.90
19044;DHT22;9654;52.302;8.120;2023-07-31T07:02:59;15.90;99.90
19044;DHT22;9654;52.302;8.120;2023-07-31T07:05:25;16.00;99.90
19044;DHT22;9654;52.302;8.120;2023-07-31T07:07:53;16.00;99.90
19044;DHT22;9654;52.302;8.120;2023-07-31T07:10:20;16.00;99.90
19044;DHT22;9654;52.302;8.120;2023-07-31T07:12:47;16.00;99.90
19044;DHT22;9654;52.302;8.120;2023-07-31T07:15:14;16.00;99.90
19044;DHT22;9654;52.302;8.120;2023-07-31T07:17:41;16.00;99.90
19044;DHT22;9654;52.302;8.120;2023-07-31T07:20:08;16.10;99.90
19044;DHT22;9654;52.302;8.120;2023-07-31T07:22:35;16.10;99.90
19044;DHT22;9654;52.302;8.120;2023-07-31T07:25:04;16.10;99.90
19044;DHT22;9654;52.302;8.120;2023-07-31T07:27:31;16.10;99.90
19044;DHT22;9654;52.302;8.120;2023-07-31T07:29:58;16.10;99.90
19044;DHT22;9654;52.302;8.120;2023-07-31T07:32:25;16.00;99.90
19044;DHT22;9654;52.302;8.120;2023-07-31T07:34:51;16.00;99.90
19044;DHT22;9654;52.302;8.120;2023-07-31T07:37:18;16.00;99.90
19044;DHT22;9654;52.302;8.120;2023-07-31T07:39:45;16.00;99.90
19044;DHT22;9654;52.302;8.120;2023-07-31T07:42:13;16.00;99.90
19044;DHT22;9654;52.302;8.120;2023-07-31T07:44:40;16.00;99.90
19044;DHT22;9654;52.302;8.120;2023-07-31T07:47:06;16.00;99.90
19044;DHT22;9654;52.302;8.120;2023-07-31T07:49:34;16.00;99.90
19044;DHT22;9654;52.302;8.120;2023-07-31T07:52:01;16.00;99.90
19044;DHT22;9654;52.302;8.120;2023-07-31T07:54:28;16.00;99.90
19044;DHT22;9654;52.302;8.120;2023-07-31T07:56:55;16.00;99.90
19044;DHT22;9654;52.302;8.120;2023-07-31T07:59:23;16.00;99.90
19044;DHT22;9654;52.302;8.120;2023-07-31T08:01:50;16.00;99.90
19044;DHT22;9654;52.302;8.120;2023-07-31T08:04:17;16.00;99.90
19044;DHT22;9654;52.302;8.120;2023-07-31T08:06:44;16.00;99.90
19044;DHT22;9654;52.302;8.120;2023-07-31T08:09:10;16.00;99.90
19044;DHT22;9654;52.302;8.120;2023-07-31T08:11:37;16.00;99.90
19044;DHT22;9654;52.302;8.120;2023-07-31T08:14:04;16.10;99.90
19044;DHT22;9654;52.302;8.120;2023-07-31T08:16:32;16.20;99.90
19044;DHT22;9654;52.302;8.120;2023-07-31T08:18:59;16.30;99.90
19044;DHT22;9654;52.302;8.120;2023-07-31T08:21:25;16.40;99.90
19044;DHT22;9654;52.302;8.120;2023-07-31T08:23:52;16.50;99.90
19044;DHT22;9654;52.302;8.120;2023-07-31T08:26:19;16.50;99.90
19044;DHT22;9654;52.302;8.120;2023-07-31T08:28:46;16.60;99.90
19044;DHT22;9654;52.302;8.120;2023-07-31T08:31:13;16.60;99.90
19044;DHT22;9654;52.302;8.120;2023-07-31T08:33:41;16.70;99.90
19044;DHT22;9654;52.302;8.120;2023-07-31T08:36:08;16.70;99.90
19044;DHT22;9654;52.302;8.120;2023-07-31T08:38:34;16.70;99.90
19044;DHT22;9654;52.302;8.120;2023-07-31T08:41:03;16.70;99.90
19044;DHT22;9654;52.302;8.120;2023-07-31T08:43:30;16.70;99.90
19044;DHT22;9654;52.302;8.120;2023-07-31T08:45:57;16.70;99.90
19044;DHT22;9654;52.302;8.120;2023-07-31T08:48:24;16.70;99.90
19044;DHT22;9654;52.302;8.120;2023-07-31T08:50:53;16.80;99.90
19044;DHT22;9654;52.302;8.120;2023-07-31T08:53:20;16.80;99.90
19044;DHT22;9654;52.302;8.120;2023-07-31T08:55:48;16.90;99.90
19044;DHT22;9654;52.302;8.120;2023-07-31T08:58:15;16.80;99.90
19044;DHT22;9654;52.302;8.120;2023-07-31T09:00:46;16.90;99.90
19044;DHT22;9654;52.302;8.120;2023-07-31T09:03:14;16.80;99.90
19044;DHT22;9654;52.302;8.120;2023-07-31T09:05:43;16.70;99.90
19044;DHT22;9654;52.302;8.120;2023-07-31T09:08:13;16.80;99.90
19044;DHT22;9654;52.302;8.120;2023-07-31T09:10:41;16.80;99.90
19044;DHT22;9654;52.302;8.120;2023-07-31T09:13:09;16.80;99.90
19044;DHT22;9654;52.302;8.120;2023-07-31T09:15:36;16.70;99.90
19044;DHT22;9654;52.302;8.120;2023-07-31T09:18:04;16.70;99.90
19044;DHT22;9654;52.302;8.120;2023-07-31T09:20:32;16.70;99.90
19044;DHT22;9654;52.302;8.120;2023-07-31T09:23:06;16.70;99.90
19044;DHT22;9654;52.302;8.120;2023-07-31T09:25:35;16.70;99.90
19044;DHT22;9654;52.302;8.120;2023-07-31T09:28:04;16.80;99.90
19044;DHT22;9654;52.302;8.120;2023-07-31T09:30:44;16.80;99.90
19044;DHT22;9654;52.302;8.120;2023-07-31T09:33:11;16.90;99.90
19044;DHT22;9654;52.302;8.120;2023-07-31T09:35:39;16.90;99.90
19044;DHT22;9654;52.302;8.120;2023-07-31T09:38:08;16.90;99.90
19044;DHT22;9654;52.302;8.120;2023-07-31T09:40:38;16.90;99.90
19044;DHT22;9654;52.302;8.120;2023-07-31T09:43:05;16.90;99.90
19044;DHT22;9654;52.302;8.120;2023-07-31T09:45:34;16.90;99.90
19044;DHT22;9654;52.302;8.120;2023-07-31T09:48:02;17.00;99.90
19044;DHT22;9654;52.302;8.120;2023-07-31T09:50:29;17.00;99.90
19044;DHT22;9654;52.302;8.120;2023-07-31T09:52:56;17.00;99.90
19044;DHT22;9654;52.302;8.120;2023-07-31T09:55:24;17.00;99.90
19044;DHT22;9654;52.302;8.120;2023-07-31T09:57:54;17.10;99.90
19044;DHT22;9654;52.302;8.120;2023-07-31T10:00:24;17.10;99.90
19044;DHT22;9654;52.302;8.120;2023-07-31T10:02:54;17.10;99.90
19044;DHT22;9654;52.302;8.120;2023-07-31T10:05:21;17.00;99.90
19044;DHT22;9654;52.302;8.120;2023-07-31T10:07:51;17.00;99.90
19044;DHT22;9654;52.302;8.120;2023-07-31T10:10:20;17.00;99.90
19044;DHT22;9654;52.302;8.120;2023-07-31T10:12:48;17.00;99.90
19044;DHT22;9654;52.302;8.120;2023-07-31T10:15:17;17.10;99.90
19044;DHT22;9654;52.302;8.120;2023-07-31T10:17:47;17.10;99.90
19044;DHT22;9654;52.302;8.120;2023-07-31T10:20:14;17.10;99.90
19044;DHT22;9654;52.302;8.120;2023-07-31T10:22:42;17.00;99.90
19044;DHT22;9654;52.302;8.120;2023-07-31T10:25:09;16.90;99.90
19044;DHT22;9654;52.302;8.120;2023-07-31T10:27:38;16.90;99.90
19044;DHT22;9654;52.302;8.120;2023-07-31T10:30:08;16.90;99.90
19044;DHT22;9654;52.302;8.120;2023-07-31T10:32:38;16.90;99.90
19044;DHT22;9654;52.302;8.120;2023-07-31T10:35:07;16.90;99.90
19044;DHT22;9654;52.302;8.120;2023-07-31T10:37:37;16.90;99.90
19044;DHT22;9654;52.302;8.120;2023-07-31T10:40:05;16.90;99.90
19044;DHT22;9654;52.302;8.120;2023-07-31T10:42:34;16.90;99.90
19044;DHT22;9654;52.302;8.120;2023-07-31T10:45:03;16.90;99.90
19044;DHT22;9654;52.302;8.120;2023-07-31T10:47:30;16.80;99.90
19044;DHT22;9654;52.302;8.120;2023-07-31T10:50:19;16.80;99.90
19044;DHT22;9654;52.302;8.120;2023-07-31T10:52:48;16.90;99.90
19044;DHT22;9654;52.302;8.120;2023-07-31T10:55:29;16.90;99.90
19044;DHT22;9654;52.302;8.120;2023-07-31T10:57:58;16.90;99.90
19044;DHT22;9654;52.302;8.120;2023-07-31T11:00:26;16.90;99.90
19044;DHT22;9654;52.302;8.120;2023-07-31T11:02:57;17.00;99.90
19044;DHT22;9654;52.302;8.120;2023-07-31T11:05:50;17.10;99.90
19044;DHT22;9654;52.302;8.120;2023-07-31T11:08:20;17.10;99.90
19044;DHT22;9654;52.302;8.120;2023-07-31T11:10:49;17.10;99.90
19044;DHT22;9654;52.302;8.120;2023-07-31T11:13:16;17.10;99.90
19044;DHT22;9654;52.302;8.120;2023-07-31T11:15:43;17.10;99.90
19044;DHT22;9654;52.302;8.120;2023-07-31T11:18:10;17.10;99.90
19044;DHT22;9654;52.302;8.120;2023-07-31T11:20:37;17.10;99.90
19044;DHT22;9654;52.302;8.120;2023-07-31T11:23:08;17.00;99.90
19044;DHT22;9654;52.302;8.120;2023-07-31T11:25:36;17.00;99.90
19044;DHT22;9654;52.302;8.120;2023-07-31T11:28:05;17.00;99.90
19044;DHT22;9654;52.302;8.120;2023-07-31T11:30:32;17.00;99.90
19044;DHT22;9654;52.302;8.120;2023-07-31T11:33:00;17.00;99.90
19044;DHT22;9654;52.302;8.120;2023-07-31T11:35:28;17.00;99.90
19044;DHT22;9654;52.302;8.120;2023-07-31T11:37:55;17.00;99.90
19044;DHT22;9654;52.302;8.120;2023-07-31T11:40:23;17.00;99.90
19044;DHT22;9654;52.302;8.120;2023-07-31T11:42:54;17.10;99.90
19044;DHT22;9654;52.302;8.120;2023-07-31T11:45:24;17.10;99.90
19044;DHT22;9654;52.302;8.120;2023-07-31T11:47:52;17.10;99.90
19044;DHT22;9654;52.302;8.120;2023-07-31T11:50:18;17.10;99.90
19044;DHT22;9654;52.302;8.120;2023-07-31T11:52:46;17.10;99.90
19044;DHT22;9654;52.302;8.120;2023-07-31T11:55:14;17.20;99.90
19044;DHT22;9654;52.302;8.120;2023-07-31T11:57:43;17.20;99.90
19044;DHT22;9654;52.302;8.120;2023-07-31T12:00:13;17.20;99.90
19044;DHT22;9654;52.302;8.120;2023-07-31T12:02:41;17.30;99.90
19044;DHT22;9654;52.302;8.120;2023-07-31T12:05:11;17.20;99.90
19044;DHT22;9654;52.302;8.120;2023-07-31T12:07:46;17.20;99.90
19044;DHT22;9654;52.302;8.120;2023-07-31T12:10:25;17.20;99.90
19044;DHT22;9654;52.302;8.120;2023-07-31T12:12:58;17.30;99.90
19044;DHT22;9654;52.302;8.120;2023-07-31T12:15:32;17.20;99.90
19044;DHT22;9654;52.302;8.120;2023-07-31T12:17:59;17.30;99.90
19044;DHT22;9654;52.302;8.120;2023-07-31T12:20:26;17.30;99.90
19044;DHT22;9654;52.302;8.120;2023-07-31T12:22:56;17.40;99.90
19044;DHT22;9654;52.302;8.120;2023-07-31T12:25:28;17.30;99.90
19044;DHT22;9654;52.302;8.120;2023-07-31T12:27:54;17.40;99.90
19044;DHT22;9654;52.302;8.120;2023-07-31T12:30:29;17.40;99.90
19044;DHT22;9654;52.302;8.120;2023-07-31T12:33:02;17.50;99.90
19044;DHT22;9654;52.302;8.120;2023-07-31T12:35:35;17.50;99.90
19044;DHT22;9654;52.302;8.120;2023-07-31T12:38:02;17.60;99.90
19044;DHT22;9654;52.302;8.120;2023-07-31T12:40:29;17.60;99.90
19044;DHT22;9654;52.302;8.120;2023-07-31T12:42:56;17.70;99.90
19044;DHT22;9654;52.302;8.120;2023-07-31T12:45:22;17.70;99.90
19044;DHT22;9654;52.302;8.120;2023-07-31T12:47:51;17.70;99.90
19044;DHT22;9654;52.302;8.120;2023-07-31T12:50:18;17.70;99.90
19044;DHT22;9654;52.302;8.120;2023-07-31T12:52:44;17.70;99.90
19044;DHT22;9654;52.302;8.120;2023-07-31T12:55:11;17.70;99.90
19044;DHT22;9654;52.302;8.120;2023-07-31T12:57:39;17.70;99.90
19044;DHT22;9654;52.302;8.120;2023-07-31T13:00:07;17.70;99.90
19044;DHT22;9654;52.302;8.120;2023-07-31T13:02:34;17.70;99.90
19044;DHT22;9654;52.302;8.120;2023-07-31T13:05:02;17.80;99.90
19044;DHT22;9654;52.302;8.120;2023-07-31T13:07:29;17.80;99.90
19044;DHT22;9654;52.302;8.120;2023-07-31T13:09:56;17.90;99.90
19044;DHT22;9654;52.302;8.120;2023-07-31T13:12:22;18.00;99.90
19044;DHT22;9654;52.302;8.120;2023-07-31T13:14:50;18.20;99.90
19044;DHT22;9654;52.302;8.120;2023-07-31T13:17:17;18.30;99.90
19044;DHT22;9654;52.302;8.120;2023-07-31T13:19:43;18.30;99.90
19044;DHT22;9654;52.302;8.120;2023-07-31T13:22:11;18.40;99.90
19044;DHT22;9654;52.302;8.120;2023-07-31T13:24:38;18.40;99.90
19044;DHT22;9654;52.302;8.120;2023-07-31T13:27:05;18.50;99.90
19044;DHT22;9654;52.302;8.120;2023-07-31T13:29:31;18.50;99.90
19044;DHT22;9654;52.302;8.120;2023-07-31T13:31:58;18.50;99.90
19044;DHT22;9654;52.302;8.120;2023-07-31T13:34:25;18.40;99.90
19044;DHT22;9654;52.302;8.120;2023-07-31T13:36:54;18.40;99.90
19044;DHT22;9654;52.302;8.120;2023-07-31T13:39:22;18.30;99.90
19044;DHT22;9654;52.302;8.120;2023-07-31T13:41:48;18.30;99.90
19044;DHT22;9654;52.302;8.120;2023-07-31T13:44:15;18.30;99.90
19044;DHT22;9654;52.302;8.120;2023-07-31T13:46:42;18.30;99.90
19044;DHT22;9654;52.302;8.120;2023-07-31T13:49:09;18.30;99.90
19044;DHT22;9654;52.302;8.120;2023-07-31T13:51:35;18.30;99.90
19044;DHT22;9654;52.302;8.120;2023-07-31T13:54:04;18.40;99.90
19044;DHT22;9654;52.302;8.120;2023-07-31T13:56:33;18.50;99.90
19044;DHT22;9654;52.302;8.120;2023-07-31T13:59:00;18.50;99.90
19044;DHT22;9654;52.302;8.120;2023-07-31T14:01:29;18.50;99.90
19044;DHT22;9654;52.302;8.120;2023-07-31T14:03:55;18.40;99.90
19044;DHT22;9654;52.302;8.120;2023-07-31T14:06:22;18.30;99.90
19044;DHT22;9654;52.302;8.120;2023-07-31T14:08:49;18.30;99.90
19044;DHT22;9654;52.302;8.120;2023-07-31T14:11:16;18.30;99.90
19044;DHT22;9654;52.302;8.120;2023-07-31T14:13:44;18.30;99.90
19044;DHT22;9654;52.302;8.120;2023-07-31T14:16:11;18.30;99.90
19044;DHT22;9654;52.302;8.120;2023-07-31T14:18:37;18.30;99.90
19044;DHT22;9654;52.302;8.120;2023-07-31T14:21:04;18.30;99.90
19044;DHT22;9654;52.302;8.120;2023-07-31T14:23:30;18.20;99.90
19044;DHT22;9654;52.302;8.120;2023-07-31T14:25:57;18.30;99.90
19044;DHT22;9654;52.302;8.120;2023-07-31T14:28:24;18.40;99.90
19044;DHT22;9654;52.302;8.120;2023-07-31T14:30:52;18.50;99.90
19044;DHT22;9654;52.302;8.120;2023-07-31T14:33:18;18.50;99.90
19044;DHT22;9654;52.302;8.120;2023-07-31T14:35:45;18.60;99.90
19044;DHT22;9654;52.302;8.120;2023-07-31T14:38:12;18.70;99.90
19044;DHT22;9654;52.302;8.120;2023-07-31T14:40:39;18.80;99.90
19044;DHT22;9654;52.302;8.120;2023-07-31T14:43:06;18.80;99.90
19044;DHT22;9654;52.302;8.120;2023-07-31T14:45:32;18.90;99.90
19044;DHT22;9654;52.302;8.120;2023-07-31T14:48:00;18.90;99.90
19044;DHT22;9654;52.302;8.120;2023-07-31T14:50:28;19.00;99.90
19044;DHT22;9654;52.302;8.120;2023-07-31T14:52:55;19.10;99.90
19044;DHT22;9654;52.302;8.120;2023-07-31T14:55:22;19.10;99.90
19044;DHT22;9654;52.302;8.120;2023-07-31T14:57:48;19.10;99.90
19044;DHT22;9654;52.302;8.120;2023-07-31T15:00:15;19.10;99.90
19044;DHT22;9654;52.302;8.120;2023-07-31T15:02:42;19.10;99.90
19044;DHT22;9654;52.302;8.120;2023-07-31T15:05:10;19.10;99.90
19044;DHT22;9654;52.302;8.120;2023-07-31T15:07:37;19.20;99.90
19044;DHT22;9654;52.302;8.120;2023-07-31T15:10:05;19.30;99.90
19044;DHT22;9654;52.302;8.120;2023-07-31T15:12:32;19.30;99.90
19044;DHT22;9654;52.302;8.120;2023-07-31T15:14:59;19.30;99.90
19044;DHT22;9654;52.302;8.120;2023-07-31T15:17:25;19.30;99.90
19044;DHT22;9654;52.302;8.120;2023-07-31T15:19:54;19.30;99.90
19044;DHT22;9654;52.302;8.120;2023-07-31T15:22:22;19.30;99.90
19044;DHT22;9654;52.302;8.120;2023-07-31T15:24:50;19.30;99.90
19044;DHT22;9654;52.302;8.120;2023-07-31T15:27:16;19.30;99.90
19044;DHT22;9654;52.302;8.120;2023-07-31T15:29:43;19.30;99.90
19044;DHT22;9654;52.302;8.120;2023-07-31T15:32:10;19.20;99.90
19044;DHT22;9654;52.302;8.120;2023-07-31T15:34:37;19.20;99.90
19044;DHT22;9654;52.302;8.120;2023-07-31T15:37:04;19.20;99.90
19044;DHT22;9654;52.302;8.120;2023-07-31T15:39:32;19.20;99.90
19044;DHT22;9654;52.302;8.120;2023-07-31T15:41:59;19.20;99.90
19044;DHT22;9654;52.302;8.120;2023-07-31T15:44:26;19.10;99.90
19044;DHT22;9654;52.302;8.120;2023-07-31T15:46:53;19.10;99.90
19044;DHT22;9654;52.302;8.120;2023-07-31T15:49:20;19.10;99.90